Yocana, Arkansas
Current Conditions -  °F | °C
As of 11:35 AM on Wednesday 26 Nov 2014 (Local Time) from KMEZ Reporting Station
Clear Clear  
Wind Chill: 57°   Ceiling: Unl
Heat Index: 57°   Visibility: 10mi
Dew Point: 32°   Wind: 15mph
Humidity: 38%   Direction: 300°WNW
Pressure: 30.07"   Gusts: 22mph
Location:  34.592°N, 94.1901°W
Report Text: KMEZ 261735Z AUTO 30013G19KT 10SM CLR 14/00 A3007 RMK AO2
Loading
Personal Weather Stations






























Interactive Weather Map New forecast layout! Learn more

10-Day Weather Forecast

Advertisements
Track Severe Weather on mobile